SKW6436 KHNZ-KRDU
Flight info
| Callsign | SKW6436 |
|---|---|
| Flight time | 0h 30m |
| Altitude | 8000 |
| Route | RDU |
| Aircraft | CRJ7/M-SDFGIRWY/S |
Departure
| Time | 2026-05-06 23:04 |
|---|---|
| Airport | Henderson Oxford Airport (KHNZ) |
Arrival
| Time | 2026-05-06 23:34 |
|---|---|
| Airport | Raleigh-Durham International Airport (KRDU) |
| Time | Latitude | Longitude | Altitude | Speed | Heading |
|---|---|---|---|---|---|
| 2026-05-06 22:56 | 36.36229 | -78.52610 | 531 ft | 0 kts | 21° |
| 2026-05-06 23:00 | 36.36231 | -78.52610 | 531 ft | 0 kts | 358° |
| 2026-05-06 23:00 | 36.36248 | -78.52635 | 532 ft | 2 kts | 316° |
| 2026-05-06 23:00 | 36.36262 | -78.52638 | 532 ft | 4 kts | 12° |
| 2026-05-06 23:00 | 36.36303 | -78.52587 | 532 ft | 10 kts | 51° |
| 2026-05-06 23:01 | 36.36346 | -78.52517 | 532 ft | 11 kts | 52° |
| 2026-05-06 23:01 | 36.36396 | -78.52445 | 532 ft | 12 kts | 47° |
| 2026-05-06 23:01 | 36.36447 | -78.52364 | 532 ft | 12 kts | 53° |
| 2026-05-06 23:01 | 36.36502 | -78.52278 | 532 ft | 13 kts | 50° |
| 2026-05-06 23:02 | 36.36543 | -78.52230 | 532 ft | 0 kts | 358° |
| 2026-05-06 23:02 | 36.36545 | -78.52232 | 532 ft | 1 kts | 326° |
| 2026-05-06 23:02 | 36.36547 | -78.52233 | 532 ft | 0 kts | 326° |
| 2026-05-06 23:03 | 36.36557 | -78.52243 | 532 ft | 8 kts | 321° |
| 2026-05-06 23:03 | 36.36534 | -78.52340 | 533 ft | 33 kts | 230° |
| 2026-05-06 23:03 | 36.36222 | -78.52818 | 533 ft | 108 kts | 231° |
| 2026-05-06 23:03 | 36.35634 | -78.53708 | 687 ft | 150 kts | 230° |
| 2026-05-06 23:04 | 36.34966 | -78.54722 | 1397 ft | 157 kts | 231° |
| 2026-05-06 23:04 | 36.34215 | -78.55797 | 2114 ft | 173 kts | 230° |
| 2026-05-06 23:04 | 36.33390 | -78.56941 | 2743 ft | 183 kts | 231° |
| 2026-05-06 23:04 | 36.32539 | -78.58133 | 3373 ft | 190 kts | 230° |
| 2026-05-06 23:05 | 36.31595 | -78.59453 | 3710 ft | 218 kts | 229° |
| 2026-05-06 23:05 | 36.30414 | -78.60703 | 3878 ft | 228 kts | 206° |
| 2026-05-06 23:05 | 36.28832 | -78.60792 | 3965 ft | 237 kts | 170° |
| 2026-05-06 23:05 | 36.27263 | -78.60404 | 3972 ft | 226 kts | 192° |
| 2026-05-06 23:06 | 36.25882 | -78.61143 | 4000 ft | 216 kts | 217° |
| 2026-05-06 23:06 | 36.24651 | -78.62203 | 4009 ft | 217 kts | 218° |
| 2026-05-06 23:06 | 36.23397 | -78.63322 | 4542 ft | 232 kts | 219° |
| 2026-05-06 23:06 | 36.22080 | -78.64559 | 4807 ft | 237 kts | 219° |
| 2026-05-06 23:07 | 36.21224 | -78.65384 | 4908 ft | 234 kts | 223° |
| 2026-05-06 23:07 | 36.20353 | -78.67016 | 4996 ft | 228 kts | 254° |
| 2026-05-06 23:07 | 36.20006 | -78.68941 | 5051 ft | 231 kts | 258° |
| 2026-05-06 23:07 | 36.19718 | -78.70913 | 5095 ft | 235 kts | 259° |
| 2026-05-06 23:08 | 36.19466 | -78.72906 | 5099 ft | 239 kts | 260° |
| 2026-05-06 23:08 | 36.19227 | -78.74955 | 5102 ft | 242 kts | 260° |
| 2026-05-06 23:08 | 36.18988 | -78.77039 | 5129 ft | 246 kts | 261° |
| 2026-05-06 23:08 | 36.18745 | -78.79144 | 5129 ft | 249 kts | 261° |
| 2026-05-06 23:09 | 36.18503 | -78.81279 | 5153 ft | 252 kts | 260° |
| 2026-05-06 23:09 | 36.18247 | -78.83437 | 5163 ft | 257 kts | 257° |
| 2026-05-06 23:09 | 36.17776 | -78.85564 | 6021 ft | 257 kts | 253° |
| 2026-05-06 23:09 | 36.17241 | -78.87619 | 6585 ft | 237 kts | 251° |
| 2026-05-06 23:10 | 36.16729 | -78.89499 | 6830 ft | 226 kts | 251° |
| 2026-05-06 23:10 | 36.16216 | -78.91318 | 6935 ft | 222 kts | 251° |
| 2026-05-06 23:10 | 36.15699 | -78.93116 | 6980 ft | 222 kts | 251° |
| 2026-05-06 23:10 | 36.15185 | -78.94916 | 7010 ft | 222 kts | 251° |
| 2026-05-06 23:11 | 36.14939 | -78.96779 | 7020 ft | 223 kts | 278° |
| 2026-05-06 23:11 | 36.15756 | -78.98420 | 7051 ft | 236 kts | 318° |
| 2026-05-06 23:11 | 36.17347 | -78.99065 | 7072 ft | 254 kts | 355° |
| 2026-05-06 23:11 | 36.19041 | -78.98420 | 7079 ft | 268 kts | 31° |
| 2026-05-06 23:12 | 36.20504 | -78.96917 | 7078 ft | 273 kts | 38° |
| 2026-05-06 23:12 | 36.21899 | -78.95352 | 7077 ft | 275 kts | 39° |
| 2026-05-06 23:12 | 36.23124 | -78.93523 | 7068 ft | 280 kts | 65° |
| 2026-05-06 23:12 | 36.23449 | -78.91173 | 7094 ft | 279 kts | 99° |
| 2026-05-06 23:13 | 36.23078 | -78.88817 | 7081 ft | 279 kts | 106° |
| 2026-05-06 23:13 | 36.22621 | -78.86468 | 7055 ft | 281 kts | 108° |
| 2026-05-06 23:13 | 36.22145 | -78.84124 | 7046 ft | 281 kts | 108° |
| 2026-05-06 23:13 | 36.21652 | -78.81774 | 7043 ft | 282 kts | 109° |
| 2026-05-06 23:14 | 36.21152 | -78.79423 | 7032 ft | 282 kts | 108° |
| 2026-05-06 23:14 | 36.20662 | -78.77124 | 7012 ft | 270 kts | 108° |
| 2026-05-06 23:14 | 36.20186 | -78.74909 | 6899 ft | 263 kts | 109° |
| 2026-05-06 23:14 | 36.19718 | -78.72729 | 6691 ft | 261 kts | 109° |
| 2026-05-06 23:15 | 36.19260 | -78.70559 | 6464 ft | 260 kts | 109° |
| 2026-05-06 23:15 | 36.18806 | -78.68393 | 6238 ft | 259 kts | 108° |
| 2026-05-06 23:15 | 36.18346 | -78.66239 | 5956 ft | 259 kts | 108° |
| 2026-05-06 23:15 | 36.17883 | -78.64091 | 5726 ft | 257 kts | 109° |
| 2026-05-06 23:16 | 36.17366 | -78.61991 | 5475 ft | 251 kts | 121° |
| 2026-05-06 23:16 | 36.16222 | -78.60496 | 5194 ft | 234 kts | 160° |
| 2026-05-06 23:16 | 36.14745 | -78.59798 | 4951 ft | 228 kts | 168° |
| 2026-05-06 23:16 | 36.13242 | -78.59202 | 4717 ft | 225 kts | 173° |
| 2026-05-06 23:17 | 36.11707 | -78.59116 | 4457 ft | 216 kts | 188° |
| 2026-05-06 23:17 | 36.10228 | -78.59210 | 4208 ft | 214 kts | 189° |
| 2026-05-06 23:17 | 36.08738 | -78.59329 | 3913 ft | 214 kts | 189° |
| 2026-05-06 23:17 | 36.07260 | -78.59480 | 3670 ft | 211 kts | 190° |
| 2026-05-06 23:18 | 36.05798 | -78.59637 | 3423 ft | 211 kts | 190° |
| 2026-05-06 23:18 | 36.04333 | -78.59787 | 3200 ft | 209 kts | 191° |
| 2026-05-06 23:18 | 36.02904 | -78.59957 | 3060 ft | 200 kts | 198° |
| 2026-05-06 23:18 | 36.01813 | -78.60817 | 3017 ft | 187 kts | 231° |
| 2026-05-06 23:19 | 36.00844 | -78.62076 | 3026 ft | 215 kts | 227° |
| 2026-05-06 23:19 | 35.99768 | -78.63348 | 3047 ft | 213 kts | 226° |
| 2026-05-06 23:19 | 35.98711 | -78.64606 | 3046 ft | 209 kts | 227° |
| 2026-05-06 23:19 | 35.97693 | -78.65850 | 3037 ft | 203 kts | 227° |
| 2026-05-06 23:20 | 35.96701 | -78.67087 | 2823 ft | 210 kts | 228° |
| 2026-05-06 23:20 | 35.95663 | -78.68392 | 2525 ft | 214 kts | 227° |
| 2026-05-06 23:20 | 35.94609 | -78.69684 | 2233 ft | 213 kts | 226° |
| 2026-05-06 23:20 | 35.93573 | -78.70982 | 1984 ft | 211 kts | 226° |
| 2026-05-06 23:21 | 35.92565 | -78.72220 | 1864 ft | 189 kts | 226° |
| 2026-05-06 23:21 | 35.91740 | -78.73179 | 1934 ft | 138 kts | 226° |
| 2026-05-06 23:21 | 35.91073 | -78.73932 | 1437 ft | 123 kts | 227° |
| 2026-05-06 23:21 | 35.90482 | -78.74673 | 1145 ft | 125 kts | 230° |
| 2026-05-06 23:22 | 35.89889 | -78.75501 | 1004 ft | 135 kts | 225° |
| 2026-05-06 23:22 | 35.89243 | -78.76302 | 772 ft | 133 kts | 223° |
| 2026-05-06 23:22 | 35.88557 | -78.77146 | 655 ft | 139 kts | 225° |
| 2026-05-06 23:22 | 35.87898 | -78.77965 | 476 ft | 128 kts | 225° |
| 2026-05-06 23:23 | 35.87315 | -78.78669 | 444 ft | 125 kts | 226° |
| 2026-05-06 23:23 | 35.86642 | -78.79528 | 747 ft | 149 kts | 227° |
| 2026-05-06 23:23 | 35.85880 | -78.80440 | 1292 ft | 154 kts | 220° |
| 2026-05-06 23:23 | 35.84924 | -78.80891 | 1440 ft | 146 kts | 189° |
| 2026-05-06 23:24 | 35.83918 | -78.80529 | 1468 ft | 157 kts | 154° |
| 2026-05-06 23:24 | 35.83178 | -78.79461 | 1436 ft | 177 kts | 119° |
| 2026-05-06 23:24 | 35.83112 | -78.77940 | 1497 ft | 183 kts | 71° |
| 2026-05-06 23:24 | 35.83904 | -78.76704 | 1647 ft | 188 kts | 37° |
| 2026-05-06 23:25 | 35.84827 | -78.75639 | 1785 ft | 177 kts | 62° |
| 2026-05-06 23:25 | 35.84869 | -78.74211 | 1779 ft | 167 kts | 117° |
| 2026-05-06 23:25 | 35.84105 | -78.73222 | 1755 ft | 158 kts | 162° |
| 2026-05-06 23:25 | 35.83092 | -78.73186 | 1824 ft | 140 kts | 206° |
| 2026-05-06 23:26 | 35.82558 | -78.74086 | 1825 ft | 137 kts | 264° |
| 2026-05-06 23:26 | 35.83056 | -78.75124 | 1799 ft | 160 kts | 322° |
| 2026-05-06 23:26 | 35.84188 | -78.75296 | 1708 ft | 175 kts | 12° |
| 2026-05-06 23:26 | 35.85324 | -78.74722 | 1731 ft | 175 kts | 16° |
| 2026-05-06 23:27 | 35.86461 | -78.74462 | 1738 ft | 153 kts | 351° |
| 2026-05-06 23:27 | 35.87327 | -78.74959 | 1325 ft | 142 kts | 309° |
| 2026-05-06 23:27 | 35.87925 | -78.75994 | 1139 ft | 147 kts | 291° |
| 2026-05-06 23:27 | 35.88213 | -78.77077 | 828 ft | 128 kts | 264° |
| 2026-05-06 23:28 | 35.87809 | -78.78094 | 568 ft | 142 kts | 225° |
| 2026-05-06 23:28 | 35.87029 | -78.79010 | 832 ft | 170 kts | 224° |
| 2026-05-06 23:28 | 35.86091 | -78.79997 | 1185 ft | 185 kts | 222° |
| 2026-05-06 23:28 | 35.85053 | -78.80894 | 1651 ft | 182 kts | 208° |
| 2026-05-06 23:29 | 35.83863 | -78.80992 | 1827 ft | 169 kts | 171° |
| 2026-05-06 23:29 | 35.82828 | -78.80275 | 1785 ft | 179 kts | 149° |
| 2026-05-06 23:29 | 35.81788 | -78.79262 | 1880 ft | 193 kts | 146° |
| 2026-05-06 23:29 | 35.80781 | -78.78231 | 1858 ft | 184 kts | 144° |
| 2026-05-06 23:30 | 35.79928 | -78.77143 | 1831 ft | 171 kts | 141° |
| 2026-05-06 23:30 | 35.79115 | -78.76099 | 1740 ft | 170 kts | 139° |
| 2026-05-06 23:30 | 35.78629 | -78.74832 | 1541 ft | 161 kts | 98° |
| 2026-05-06 23:30 | 35.78946 | -78.73613 | 1371 ft | 150 kts | 47° |
| 2026-05-06 23:31 | 35.79833 | -78.73000 | 1345 ft | 142 kts | 2° |
| 2026-05-06 23:31 | 35.80751 | -78.73099 | 1191 ft | 136 kts | 336° |
| 2026-05-06 23:31 | 35.81656 | -78.73435 | 1347 ft | 127 kts | 345° |
| 2026-05-06 23:31 | 35.82496 | -78.73206 | 1136 ft | 134 kts | 30° |
| 2026-05-06 23:32 | 35.82876 | -78.72150 | 1097 ft | 148 kts | 115° |
| 2026-05-06 23:32 | 35.82097 | -78.71779 | 1202 ft | 128 kts | 223° |
| 2026-05-06 23:32 | 35.82163 | -78.72641 | 1114 ft | 127 kts | 324° |
| 2026-05-06 23:32 | 35.82917 | -78.73096 | 1055 ft | 121 kts | 326° |
| 2026-05-06 23:33 | 35.83705 | -78.73648 | 977 ft | 138 kts | 319° |
| 2026-05-06 23:33 | 35.84440 | -78.74419 | 924 ft | 135 kts | 308° |
| 2026-05-06 23:33 | 35.85034 | -78.75220 | 820 ft | 115 kts | 309° |
| 2026-05-06 23:33 | 35.85632 | -78.75947 | 639 ft | 132 kts | 311° |
| 2026-05-06 23:34 | 35.86319 | -78.76809 | 630 ft | 140 kts | 310° |
| 2026-05-06 23:34 | 35.86974 | -78.77612 | 418 ft | 116 kts | 306° |
| 2026-05-06 23:34 | 35.87282 | -78.78003 | 422 ft | 37 kts | 317° |
| 2026-05-06 23:34 | 35.87448 | -78.78071 | 424 ft | 21 kts | 334° |
| 2026-05-06 23:35 | 35.87552 | -78.78185 | 421 ft | 13 kts | 315° |
| 2026-05-06 23:35 | 35.87562 | -78.78197 | 427 ft | 0 kts | 315° |
| 2026-05-06 23:37 | 35.87612 | -78.78259 | 431 ft | 18 kts | 314° |
| 2026-05-06 23:37 | 35.87700 | -78.78368 | 432 ft | 10 kts | 315° |
| 2026-05-06 23:37 | 35.87704 | -78.78373 | 434 ft | 2 kts | 315° |
| 2026-05-06 23:37 | 35.87753 | -78.78431 | 428 ft | 15 kts | 316° |
| 2026-05-06 23:38 | 35.87834 | -78.78529 | 427 ft | 18 kts | 315° |
| 2026-05-06 23:38 | 35.87926 | -78.78641 | 425 ft | 20 kts | 314° |
| 2026-05-06 23:38 | 35.88027 | -78.78765 | 427 ft | 21 kts | 315° |
| 2026-05-06 23:38 | 35.88127 | -78.78889 | 421 ft | 15 kts | 314° |
| 2026-05-06 23:39 | 35.88147 | -78.78915 | 423 ft | 0 kts | 315° |
| 2026-05-06 23:40 | 35.88149 | -78.78917 | 416 ft | 1 kts | 315° |
| 2026-05-06 23:40 | 35.88151 | -78.78919 | 417 ft | 0 kts | 319° |
| 2026-05-06 23:41 | 35.88162 | -78.78930 | 425 ft | 5 kts | 319° |
| 2026-05-06 23:41 | 35.88212 | -78.78995 | 414 ft | 15 kts | 303° |
| 2026-05-06 23:41 | 35.88181 | -78.79098 | 422 ft | 14 kts | 224° |
| 2026-05-06 23:42 | 35.88110 | -78.79186 | 422 ft | 15 kts | 225° |
| 2026-05-06 23:42 | 35.88051 | -78.79259 | 416 ft | 0 kts | 226° |
| 2026-05-06 23:44 | 35.88049 | -78.79260 | 425 ft | 1 kts | 226° |
| 2026-05-06 23:44 | 35.88008 | -78.79292 | 420 ft | 1 kts | 178° |
| 2026-05-06 23:44 | 35.87982 | -78.79270 | 421 ft | 7 kts | 110° |
| 2026-05-06 23:45 | 35.88011 | -78.79204 | 423 ft | 14 kts | 46° |
| 2026-05-06 23:45 | 35.88064 | -78.79109 | 419 ft | 12 kts | 99° |
| 2026-05-06 23:45 | 35.88010 | -78.79032 | 424 ft | 12 kts | 134° |
| 2026-05-06 23:45 | 35.87938 | -78.78984 | 422 ft | 12 kts | 202° |
| 2026-05-06 23:46 | 35.87884 | -78.79040 | 415 ft | 9 kts | 250° |
| 2026-05-06 23:46 | 35.87891 | -78.79066 | 419 ft | 5 kts | 311° |
| 2026-05-06 23:46 | 35.87904 | -78.79084 | 419 ft | 0 kts | 314° |